Latest Weather Observations for Tamworth Airport

IDN60801

Issued at 3:02 pm EST Sunday 30 April 2017 (issued every 30 minutes, with the page automatically refreshed every 10 minutes)

About weather observations | Map of weather stations | Latest weather observations for NSW | Other Formats
Station Details ID: 055325 Name: TAMWORTH AIRPORT AWS Lat: -31.07 Lon: 150.84 Height: 394.9 m
Data from the previous 72 hours. | See also: Recent months at Tamworth Airport
Date/Time
EST
Temp
°C
App
Temp
°C
Dew
Point
°C
Rel
Hum
%
Delta-T
°C
Wind Press
QNH
hPa
Press
MSL
hPa
Rain since
9am
mm
Dir  Spd
km/h
Gust
km/h
Spd
kts
Gust
kts
30/03:00pm 23.3 21.3 6.1 33 8.9 NE 6 17 3 9 1019.1 1018.0 0.0
30/02:30pm 23.1 20.1 6.0 33 8.8 SE 11 15 6 8 1019.2 1018.1 0.0
30/02:00pm 23.1 20.9 6.0 33 8.8 SE 7 17 4 9 1019.4 1018.3 0.0
30/01:30pm 23.2 21.2 6.9 35 8.6 NE 7 13 4 7 1019.5 1018.4 0.0
30/01:00pm 22.1 19.4 5.5 34 8.4 SSE 9 11 5 6 1019.8 1018.8 0.0
30/12:30pm 22.2 20.2 7.2 38 7.9 WNW 7 11 4 6 1020.2 1019.2 0.0
30/12:00pm 21.5 19.7 7.3 40 7.4 SSW 6 11 3 6 1020.6 1019.6 0.0
30/11:30am 21.3 18.1 6.8 39 7.5 ESE 13 22 7 12 1021.3 1020.2 0.0
30/11:00am 20.1 16.4 6.5 41 6.9 ESE 15 22 8 12 1021.8 1020.7 0.0
30/10:30am 19.9 16.4 7.3 44 6.6 ESE 15 24 8 13 1022.2 1021.2 0.0
30/10:00am 18.3 15.6 7.4 49 5.6 SE 11 19 6 10 1022.6 1021.6 0.0
30/09:30am 17.3 14.7 7.9 54 4.9 ESE 11 15 6 8 1022.8 1021.8 0.0
30/09:00am 15.9 13.7 7.9 59 4.1 ESE 9 13 5 7 1022.8 1021.8 0.0
30/08:30am 14.2 12.1 8.4 68 3.0 SE 9 11 5 6 1022.8 1021.8 0.0
30/08:00am 11.8 8.6 8.3 79 1.8 SE 15 17 8 9 1022.7 1021.7 0.0
30/07:30am 10.1 6.6 7.3 83 1.4 SSE 15 20 8 11 1022.5 1021.5 0.0
30/07:00am 8.2 4.5 6.2 87 0.9 SSE 15 19 8 10 1022.3 1021.3 0.0
30/06:30am 6.8 2.8 4.8 87 0.9 S 15 17 8 9 1022.1 1021.1 0.0
30/06:00am 7.2 2.8 5.0 86 1.0 S 17 19 9 10 1021.8 1020.7 0.0
30/05:30am 6.9 2.9 4.9 87 0.9 S 15 17 8 9 1021.5 1020.4 0.0
30/05:00am 6.6 3.0 4.8 88 0.8 S 13 17 7 9 1021.3 1020.2 0.0
30/04:30am 6.9 3.7 5.1 88 0.8 SSE 11 13 6 7 1021.2 1020.1 0.0
30/04:00am 6.4 3.4 4.2 86 1.0 SE 9 13 5 7 1021.1 1020.0 0.0
30/03:30am 6.8 3.2 4.8 87 0.9 SE 13 15 7 8 1020.8 1019.7 0.0
30/03:00am 6.4 3.1 4.6 88 0.8 SSE 11 15 6 8 1020.5 1019.5 0.0
30/02:30am 5.7 3.0 3.5 86 0.9 S 7 9 4 5 1020.8 1019.7 0.0
30/02:00am 6.2 3.2 4.0 86 1.0 SE 9 9 5 5 1020.8 1019.7 0.0
30/01:30am 6.6 3.7 4.6 87 0.9 SE 9 9 5 5 1020.9 1019.8 0.0
30/01:00am 6.0 4.6 3.8 86 0.9 CALM 0 0 0 0 1020.9 1019.8 0.0
30/12:30am 7.8 5.5 5.8 87 0.9 SE 7 9 4 5 1020.9 1019.8 0.0
30/12:00am 7.3 4.8 5.0 85 1.0 SSE 7 11 4 6 1020.8 1019.7 0.0
 
Date/Time
EST
Temp
°C
App
Temp
°C
Dew
Point
°C
Rel
Hum
%
Delta-T
°C
Wind Press
QNH
hPa
Press
MSL
hPa
Rain since
9am
mm
Dir  Spd
km/h
Gust
km/h
Spd
kts
Gust
kts
29/11:30pm 7.8 4.6 5.3 84 1.1 SE 11 13 6 7 1020.9 1019.8 0.0
29/11:00pm 8.8 6.6 6.1 83 1.3 SSE 7 11 4 6 1021.0 1019.9 0.0
29/10:30pm 8.8 7.4 5.5 80 1.5 SSE 2 7 1 4 1021.0 1019.9 0.0
29/10:00pm 9.4 6.4 5.8 78 1.7 SSE 11 13 6 7 1021.0 1019.9 0.0
29/09:30pm 10.3 7.2 7.2 81 1.5 SSE 13 17 7 9 1021.0 1019.9 0.0
29/09:00pm 9.2 5.4 5.6 78 1.7 SSE 15 17 8 9 1020.6 1019.6 0.0
29/08:30pm 11.0 8.3 5.5 69 2.6 SSE 9 11 5 6 1020.8 1019.7 0.0
29/08:00pm 10.6 9.0 4.5 66 2.8 W 2 7 1 4 1020.6 1019.6 0.0
29/07:30pm 13.4 11.3 6.0 61 3.6 NE 6 6 3 3 1020.4 1019.4 0.0
29/07:00pm 13.6 12.4 6.5 62 3.5 NNE 2 7 1 4 1020.4 1019.4 0.0
29/06:30pm 13.8 12.4 5.7 58 3.9 S 2 7 1 4 1020.4 1019.4 0.0
29/06:00pm 16.7 14.2 5.0 46 5.7 SSW 7 7 4 4 1020.2 1019.2 0.0
29/05:30pm 17.0 14.9 5.9 48 5.5 WSW 6 7 3 4 1020.0 1019.0 0.0
29/05:00pm 19.1 16.5 5.9 42 6.6 W 9 11 5 6 1019.7 1018.6 0.0
29/04:30pm 20.8 17.9 4.8 35 8.0 W 9 13 5 7 1019.4 1018.3 0.0
29/04:00pm 21.3 18.0 4.4 33 8.4 W 11 15 6 8 1019.2 1018.1 0.0
29/03:30pm 21.5 18.6 4.6 33 8.4 W 9 13 5 7 1019.0 1017.9 0.0
29/03:00pm 21.9 18.5 5.8 35 8.2 WNW 13 17 7 9 1019.0 1017.9 0.0
29/02:30pm 21.7 19.0 5.6 35 8.2 WNW 9 15 5 8 1019.1 1018.0 0.0
29/02:00pm 21.1 18.8 5.9 37 7.7 N 7 11 4 6 1019.3 1018.2 0.0
29/01:30pm 20.9 18.7 6.4 39 7.5 W 7 15 4 8 1019.6 1018.5 0.0
29/01:00pm 20.1 17.4 5.4 38 7.4 SW 9 15 5 8 1020.3 1019.3 0.0
29/12:30pm 19.4 17.2 6.2 42 6.7 W 7 17 4 9 1020.9 1019.8 0.0
29/12:00pm 18.9 17.2 5.7 42 6.6 SW 4 11 2 6 1021.4 1020.3 0.0
29/11:30am 18.3 16.7 6.2 45 6.1 WSW 4 9 2 5 1021.8 1020.7 0.0
29/11:00am 17.7 15.9 8.0 53 5.0 NNE 7 11 4 6 1022.2 1021.2 0.0
29/10:30am 16.1 14.6 8.3 60 4.0 W 6 11 3 6 1022.5 1021.5 0.0
29/10:00am 15.6 14.9 8.4 62 3.7 S 2 7 1 4 1022.5 1021.5 0.0
29/09:47am 15.1 14.7 8.3 64 3.5 CALM 0 6 0 3 1022.6 1021.6 0.0
29/09:46am 21.2 22.4 13.9 63 4.3 CALM 0 2 0 1 1022.6 1021.6 0.0
29/09:30am 13.7 12.9 8.3 70 2.8 SSW 2 9 1 5 1022.6 1021.6 0.0
29/09:00am 11.7 10.7 7.4 75 2.1 S 2 6 1 3 1022.7 1021.7 0.0
29/08:30am 10.3 8.4 7.4 82 1.4 SSW 7 9 4 5 1022.4 1021.4 0.0
29/08:00am 8.9 7.2 6.0 82 1.4 SSE 4 7 2 4 1022.2 1021.2 0.0
29/07:30am 7.5 5.4 5.6 88 0.9 SE 6 9 3 5 1021.9 1020.8 0.0
29/07:00am 5.4 2.4 4.1 91 0.6 SSE 9 11 5 6 1021.7 1020.6 0.0
29/06:30am 4.1 1.2 2.5 89 0.7 SE 7 9 4 5 1021.4 1020.3 0.0
29/06:00am 4.9 2.4 3.6 91 0.6 S 6 7 3 4 1021.4 1020.3 0.0
29/05:30am 5.2 3.5 3.9 91 0.6 SE 2 6 1 3 1021.3 1020.2 0.0
29/05:00am 4.5 1.9 3.2 91 0.5 SSW 6 7 3 4 1021.1 1020.0 0.0
29/04:55am 4.2 2.3 2.7 90 0.6 SW 2 7 1 4 1021.1 1020.0 0.0
29/04:30am 3.5 1.7 1.5 87 0.8 CALM 0 0 0 0 1021.0 1019.9 0.0
29/04:17am 4.6 3.1 2.9 89 0.7 CALM 0 6 0 3 1021.0 1019.9 0.0
29/04:00am 5.4 2.7 3.9 90 0.6 ESE 7 9 4 5 1020.8 1019.7 0.0
29/03:30am 5.0 2.4 3.3 89 0.7 ESE 6 7 3 4 1020.5 1019.5 0.0
29/03:00am 5.2 2.7 3.5 89 0.7 SSW 6 7 3 4 1020.4 1019.4 0.0
29/02:30am 5.7 3.6 4.0 89 0.7 SW 4 9 2 5 1020.5 1019.5 0.0
29/02:00am 5.8 3.1 3.5 85 1.0 SSW 7 9 4 5 1020.6 1019.6 0.0
29/01:30am 6.8 3.5 4.6 86 1.0 SSE 11 15 6 8 1020.9 1019.8 0.0
29/01:00am 7.2 4.0 4.9 85 1.0 SE 11 13 6 7 1021.1 1020.0 0.0
29/12:30am 7.4 5.1 4.9 84 1.1 ESE 6 9 3 5 1021.3 1020.2 0.0
29/12:00am 7.3 6.1 4.6 83 1.2 CALM 0 6 0 3 1021.4 1020.3 0.0
 
Date/Time
EST
Temp
°C
App
Temp
°C
Dew
Point
°C
Rel
Hum
%
Delta-T
°C
Wind Press
QNH
hPa
Press
MSL
hPa
Rain since
9am
mm
Dir  Spd
km/h
Gust
km/h
Spd
kts
Gust
kts
28/11:30pm 7.9 5.1 5.2 83 1.2 SSE 9 11 5 6 1021.3 1020.2 0.0
28/11:00pm 7.3 4.0 4.6 83 1.2 SSW 11 13 6 7 1021.4 1020.3 0.0
28/10:30pm 7.8 5.4 4.4 79 1.5 SSW 6 7 3 4 1021.5 1020.4 0.0
28/10:00pm 8.8 6.5 5.0 77 1.7 SE 6 9 3 5 1021.6 1020.5 0.0
28/09:30pm 9.6 5.7 5.4 75 2.0 SE 15 17 8 9 1021.6 1020.5 0.0
28/09:00pm 9.5 6.1 5.9 78 1.7 SSE 13 15 7 8 1021.7 1020.6 0.0
28/08:30pm 9.8 7.2 6.0 77 1.8 S 9 11 5 6 1021.5 1020.4 0.0
28/08:00pm 10.0 6.7 6.2 77 1.8 SSE 13 15 7 8 1021.3 1020.2 0.0
28/07:30pm 10.4 7.5 6.4 76 1.9 SSE 11 13 6 7 1021.3 1020.2 0.0
28/07:00pm 11.1 7.7 6.0 71 2.4 S 13 15 7 8 1021.1 1020.0 0.0
28/06:30pm 12.0 8.5 7.1 72 2.4 SW 15 17 8 9 1020.8 1019.7 0.0
28/06:00pm 12.6 9.3 6.4 66 3.0 SSW 13 15 7 8 1020.3 1019.3 0.0
28/05:30pm 14.6 11.0 6.7 59 3.9 S 15 15 8 8 1019.9 1018.9 0.0
28/05:00pm 17.1 13.9 6.9 51 5.2 S 13 15 7 8 1019.6 1018.5 0.0
28/04:30pm 18.7 14.7 6.5 45 6.2 S 17 22 9 12 1019.4 1018.3 0.0
28/04:00pm 19.7 16.2 7.1 44 6.5 S 15 20 8 11 1019.3 1018.2 0.0
28/03:30pm 20.1 16.2 7.1 43 6.7 SSE 17 26 9 14 1019.4 1018.3 0.0
28/03:00pm 20.2 15.9 7.2 43 6.7 S 19 26 10 14 1019.6 1018.5 0.0
28/02:30pm 20.5 17.1 7.5 43 6.8 SSE 15 24 8 13 1019.4 1018.3 0.0
28/02:00pm 19.6 16.4 6.7 43 6.6 SE 13 26 7 14 1019.2 1018.1 0.0
28/01:30pm 20.1 15.8 6.8 42 6.9 SSE 19 28 10 15 1019.3 1018.2 0.0
28/01:00pm 19.9 15.6 7.0 43 6.7 SSE 19 28 10 15 1019.5 1018.4 0.0
28/12:30pm 19.4 15.3 6.2 42 6.7 SSE 17 28 9 15 1019.9 1018.9 0.0
28/12:00pm 19.4 15.1 7.2 45 6.3 SE 19 26 10 14 1020.4 1019.4 0.0
28/11:30am 18.9 14.9 6.7 45 6.2 S 17 26 9 14 1020.9 1019.8 0.0
28/11:00am 18.1 14.5 6.6 47 5.8 SE 15 22 8 12 1021.3 1020.2 0.0
28/10:30am 17.3 13.6 6.5 49 5.4 SE 15 22 8 12 1021.6 1020.5 0.0
28/10:00am 16.3 12.6 6.2 51 5.0 SSE 15 24 8 13 1021.5 1020.4 0.0
28/09:30am 15.1 12.8 7.4 60 3.9 SE 9 15 5 8 1021.8 1020.7 0.0
28/09:00am 13.1 10.8 7.3 68 2.9 SE 9 13 5 7 1021.7 1020.6 0.0
28/08:30am 11.9 8.8 7.2 73 2.3 SE 13 17 7 9 1021.6 1020.5 0.0
28/08:00am 10.5 7.3 7.0 79 1.7 SE 13 15 7 8 1021.3 1020.2 0.0
28/07:30am 7.9 6.7 6.5 91 0.7 SW 2 6 1 3 1020.8 1019.7 0.0
28/07:00am 5.6 4.3 3.9 89 0.7 CALM 0 0 0 0 1020.5 1019.5 0.0
28/06:30am 5.4 2.7 3.6 88 0.8 ENE 7 9 4 5 1020.1 1019.1 0.0
28/06:00am 6.3 2.6 4.6 89 0.8 S 13 13 7 7 1020.1 1019.1 0.0
28/05:30am 6.3 3.3 4.3 87 0.9 SSE 9 11 5 6 1019.8 1018.8 0.0
28/05:00am 6.8 5.6 4.6 86 1.0 CALM 0 0 0 0 1019.6 1018.5 0.0
28/04:30am 7.1 4.6 4.9 86 1.0 ENE 7 9 4 5 1019.7 1018.6 0.0
28/04:00am 7.4 6.4 5.4 87 0.9 CALM 0 0 0 0 1019.4 1018.3 0.0
28/03:30am 7.3 5.1 5.4 88 0.9 ENE 6 7 3 4 1019.1 1018.0 0.0
28/03:00am 7.2 6.1 5.3 88 0.9 CALM 0 0 0 0 1019.1 1018.0 0.0
28/02:30am 7.1 6.1 5.7 91 0.6 CALM 0 0 0 0 1018.9 1017.8 0.0
28/02:00am 6.9 5.9 5.5 91 0.6 CALM 0 0 0 0 1018.9 1017.8 0.0
28/01:44am 6.1 4.9 4.7 91 0.6 CALM 0 0 0 0 1019.0 1017.9 0.0
28/01:30am 5.9 3.9 4.5 91 0.6 ENE 4 7 2 4 1019.0 1017.9 0.0
28/01:00am 4.8 2.2 3.1 89 0.7 NNE 6 7 3 4 1019.1 1018.0 0.0
28/12:51am 5.3 2.8 3.6 89 0.7 NNE 6 7 3 4 1019.1 1018.0 0.0
28/12:30am 5.8 4.2 4.3 90 0.7 ENE 2 7 1 4 1019.1 1018.0 0.0
28/12:25am 5.6 4.3 4.1 90 0.7 CALM 0 0 0 0 1019.0 1017.9 0.0
28/12:24am 5.6 4.3 4.1 90 0.7 CALM 0 0 0 0 1019.0 1017.9 0.0
28/12:06am 6.2 5.0 4.7 90 0.7 CALM 0 0 0 0 1019.0 1017.9 0.0
28/12:00am 6.2 5.0 4.7 90 0.7 CALM 0 0 0 0 1019.0 1017.9 0.0
 
Date/Time
EST
Temp
°C
App
Temp
°C
Dew
Point
°C
Rel
Hum
%
Delta-T
°C
Wind Press
QNH
hPa
Press
MSL
hPa
Rain since
9am
mm
Dir  Spd
km/h
Gust
km/h
Spd
kts
Gust
kts
27/11:30pm 5.2 3.7 2.9 85 1.0 CALM 0 0 0 0 1019.0 1017.9 0.0
27/11:00pm 6.9 4.6 4.7 86 1.0 SE 6 7 3 4 1019.1 1018.0 0.0
27/10:30pm 8.7 7.8 6.0 83 1.3 CALM 0 0 0 0 1019.0 1017.9 0.0
27/10:00pm 8.1 5.9 6.1 87 0.9 W 7 7 4 4 1019.0 1017.9 0.0
27/09:30pm 8.8 7.5 5.9 82 1.4 SSW 2 6 1 3 1018.9 1017.8 0.0
27/09:00pm 9.7 8.9 6.4 80 1.6 CALM 0 0 0 0 1019.1 1018.0 0.0
27/08:30pm 10.5 9.7 6.6 77 1.9 CALM 0 0 0 0 1019.0 1017.9 0.0
27/08:00pm 10.6 9.9 7.1 79 1.7 CALM 0 0 0 0 1018.9 1017.8 0.0
27/07:30pm 10.8 8.9 6.9 77 1.9 ENE 6 7 3 4 1018.4 1017.3 0.0
27/07:00pm 10.9 8.8 6.6 75 2.1 N 7 7 4 4 1018.2 1017.1 0.0
27/06:30pm 11.3 9.2 6.6 73 2.3 N 7 7 4 4 1017.7 1016.7 0.0
27/06:00pm 11.7 10.2 6.6 71 2.5 N 4 6 2 3 1017.4 1016.3 0.0
27/05:30pm 12.0 10.0 6.3 68 2.8 NNE 6 9 3 5 1017.2 1016.1 0.0
27/05:00pm 12.3 9.7 5.9 65 3.1 N 9 11 5 6 1016.9 1015.8 0.0
27/04:30pm 12.8 10.1 5.5 61 3.5 NNW 9 11 5 6 1016.8 1015.7 0.0
27/04:00pm 12.8 9.7 5.5 61 3.5 NNW 11 17 6 9 1016.6 1015.5 0.0
27/03:30pm 12.7 9.7 5.8 63 3.3 NW 11 15 6 8 1016.5 1015.4 0.0

Other Formats:

Comma delimited format used in spreadsheet applications
http://www.bom.gov.au/fwo/IDN60801/IDN60801.95762.axf

JavaScript Object Notation format (JSON) in row-major order
http://www.bom.gov.au/fwo/IDN60801/IDN60801.95762.json